sensor_id;sensor_type;location;lat;lon;timestamp;P1;durP1;ratioP1;P2;durP2;ratioP2
66020;SDS011;52789;59.980;30.346;2022-11-11T00:01:55;17.47;;;5.40;;
66020;SDS011;52789;59.980;30.346;2022-11-11T00:04:21;11.40;;;4.97;;
66020;SDS011;52789;59.980;30.346;2022-11-11T00:06:46;8.93;;;5.07;;
66020;SDS011;52789;59.980;30.346;2022-11-11T00:09:12;13.10;;;5.27;;
66020;SDS011;52789;59.980;30.346;2022-11-11T00:11:37;8.27;;;4.87;;
66020;SDS011;52789;59.980;30.346;2022-11-11T00:14:03;7.80;;;5.03;;
66020;SDS011;52789;59.980;30.346;2022-11-11T00:16:28;9.50;;;5.57;;
66020;SDS011;52789;59.980;30.346;2022-11-11T00:19:14;10.87;;;5.47;;
66020;SDS011;52789;59.980;30.346;2022-11-11T00:21:58;9.70;;;6.17;;
66020;SDS011;52789;59.980;30.346;2022-11-11T00:24:41;9.77;;;5.47;;
66020;SDS011;52789;59.980;30.346;2022-11-11T00:27:26;13.03;;;6.50;;
66020;SDS011;52789;59.980;30.346;2022-11-11T00:29:51;13.60;;;7.20;;
66020;SDS011;52789;59.980;30.346;2022-11-11T00:32:17;9.87;;;6.47;;
66020;SDS011;52789;59.980;30.346;2022-11-11T00:34:49;8.50;;;6.63;;
66020;SDS011;52789;59.980;30.346;2022-11-11T00:37:33;13.70;;;7.83;;
66020;SDS011;52789;59.980;30.346;2022-11-11T00:39:59;11.67;;;8.10;;
66020;SDS011;52789;59.980;30.346;2022-11-11T00:42:28;15.37;;;8.33;;
66020;SDS011;52789;59.980;30.346;2022-11-11T00:44:54;10.47;;;7.90;;
66020;SDS011;52789;59.980;30.346;2022-11-11T00:47:20;12.00;;;8.07;;
66020;SDS011;52789;59.980;30.346;2022-11-11T00:50:04;14.17;;;8.83;;
66020;SDS011;52789;59.980;30.346;2022-11-11T00:52:54;14.43;;;9.33;;
66020;SDS011;52789;59.980;30.346;2022-11-11T00:55:20;12.67;;;8.30;;
66020;SDS011;52789;59.980;30.346;2022-11-11T00:57:45;12.03;;;8.47;;
66020;SDS011;52789;59.980;30.346;2022-11-11T01:00:11;12.03;;;9.90;;
66020;SDS011;52789;59.980;30.346;2022-11-11T01:02:37;13.17;;;9.63;;
66020;SDS011;52789;59.980;30.346;2022-11-11T01:05:03;10.93;;;8.13;;
66020;SDS011;52789;59.980;30.346;2022-11-11T01:07:29;12.50;;;8.53;;
66020;SDS011;52789;59.980;30.346;2022-11-11T01:09:55;13.97;;;7.50;;
66020;SDS011;52789;59.980;30.346;2022-11-11T01:12:21;12.40;;;8.00;;
66020;SDS011;52789;59.980;30.346;2022-11-11T01:14:46;11.13;;;7.50;;
66020;SDS011;52789;59.980;30.346;2022-11-11T01:17:12;13.80;;;7.00;;
66020;SDS011;52789;59.980;30.346;2022-11-11T01:19:37;8.90;;;6.70;;
66020;SDS011;52789;59.980;30.346;2022-11-11T01:22:03;10.83;;;7.47;;
66020;SDS011;52789;59.980;30.346;2022-11-11T01:24:28;11.53;;;7.30;;
66020;SDS011;52789;59.980;30.346;2022-11-11T01:26:54;12.40;;;7.13;;
66020;SDS011;52789;59.980;30.346;2022-11-11T01:29:20;8.93;;;6.97;;
66020;SDS011;52789;59.980;30.346;2022-11-11T01:31:45;12.23;;;7.27;;
66020;SDS011;52789;59.980;30.346;2022-11-11T01:34:11;10.63;;;6.60;;
66020;SDS011;52789;59.980;30.346;2022-11-11T01:36:36;9.47;;;7.40;;
66020;SDS011;52789;59.980;30.346;2022-11-11T01:39:02;11.63;;;6.67;;
66020;SDS011;52789;59.980;30.346;2022-11-11T01:41:29;9.47;;;6.60;;
66020;SDS011;52789;59.980;30.346;2022-11-11T01:43:58;12.53;;;7.27;;
66020;SDS011;52789;59.980;30.346;2022-11-11T01:57:38;13.50;;;7.17;;
66020;SDS011;52789;59.980;30.346;2022-11-11T02:00:09;13.10;;;6.57;;
66020;SDS011;52789;59.980;30.346;2022-11-11T02:02:44;9.60;;;6.73;;
66020;SDS011;52789;59.980;30.346;2022-11-11T02:05:13;13.53;;;7.13;;
66020;SDS011;52789;59.980;30.346;2022-11-11T02:08:00;13.90;;;7.47;;
66020;SDS011;52789;59.980;30.346;2022-11-11T02:10:30;11.63;;;6.80;;
66020;SDS011;52789;59.980;30.346;2022-11-11T02:12:57;13.13;;;7.70;;
66020;SDS011;52789;59.980;30.346;2022-11-11T02:15:41;12.97;;;8.30;;
66020;SDS011;52789;59.980;30.346;2022-11-11T02:18:07;15.87;;;8.20;;
66020;SDS011;52789;59.980;30.346;2022-11-11T02:20:36;9.10;;;6.93;;
66020;SDS011;52789;59.980;30.346;2022-11-11T02:25:38;21.80;;;8.77;;
66020;SDS011;52789;59.980;30.346;2022-11-11T02:28:09;33.03;;;7.80;;
66020;SDS011;52789;59.980;30.346;2022-11-11T02:30:36;12.43;;;6.90;;
66020;SDS011;52789;59.980;30.346;2022-11-11T02:33:01;10.20;;;7.40;;
66020;SDS011;52789;59.980;30.346;2022-11-11T02:35:35;16.73;;;9.40;;
66020;SDS011;52789;59.980;30.346;2022-11-11T02:38:05;15.83;;;10.03;;
66020;SDS011;52789;59.980;30.346;2022-11-11T02:43:26;12.63;;;8.57;;
66020;SDS011;52789;59.980;30.346;2022-11-11T02:45:53;10.40;;;7.97;;
66020;SDS011;52789;59.980;30.346;2022-11-11T02:48:18;15.30;;;7.50;;
66020;SDS011;52789;59.980;30.346;2022-11-11T02:50:44;12.13;;;9.00;;
66020;SDS011;52789;59.980;30.346;2022-11-11T02:53:11;12.37;;;8.37;;
66020;SDS011;52789;59.980;30.346;2022-11-11T02:55:36;14.63;;;8.93;;
66020;SDS011;52789;59.980;30.346;2022-11-11T02:58:02;14.23;;;7.83;;
66020;SDS011;52789;59.980;30.346;2022-11-11T03:00:28;12.90;;;8.10;;
66020;SDS011;52789;59.980;30.346;2022-11-11T03:02:53;14.23;;;8.60;;
66020;SDS011;52789;59.980;30.346;2022-11-11T03:05:19;9.13;;;6.90;;
66020;SDS011;52789;59.980;30.346;2022-11-11T03:07:44;9.43;;;7.50;;
66020;SDS011;52789;59.980;30.346;2022-11-11T03:10:10;12.23;;;7.27;;
66020;SDS011;52789;59.980;30.346;2022-11-11T03:12:36;13.03;;;7.17;;
66020;SDS011;52789;59.980;30.346;2022-11-11T03:15:02;8.80;;;7.17;;
66020;SDS011;52789;59.980;30.346;2022-11-11T03:17:29;10.73;;;6.77;;
66020;SDS011;52789;59.980;30.346;2022-11-11T03:23:14;9.07;;;7.00;;
66020;SDS011;52789;59.980;30.346;2022-11-11T03:25:46;13.73;;;7.20;;
66020;SDS011;52789;59.980;30.346;2022-11-11T03:28:13;18.00;;;9.00;;
66020;SDS011;52789;59.980;30.346;2022-11-11T03:30:41;13.23;;;8.45;;
66020;SDS011;52789;59.980;30.346;2022-11-11T03:33:08;12.57;;;7.70;;
66020;SDS011;52789;59.980;30.346;2022-11-11T03:35:35;13.13;;;8.30;;
66020;SDS011;52789;59.980;30.346;2022-11-11T03:38:01;12.13;;;7.60;;
66020;SDS011;52789;59.980;30.346;2022-11-11T03:40:41;10.63;;;7.97;;
66020;SDS011;52789;59.980;30.346;2022-11-11T03:43:07;11.27;;;7.97;;
66020;SDS011;52789;59.980;30.346;2022-11-11T03:45:33;10.70;;;8.47;;
66020;SDS011;52789;59.980;30.346;2022-11-11T03:48:03;13.50;;;8.10;;
66020;SDS011;52789;59.980;30.346;2022-11-11T03:50:29;13.47;;;7.70;;
66020;SDS011;52789;59.980;30.346;2022-11-11T03:52:55;11.43;;;8.37;;
66020;SDS011;52789;59.980;30.346;2022-11-11T03:55:22;11.40;;;7.43;;
66020;SDS011;52789;59.980;30.346;2022-11-11T03:57:47;16.60;;;8.10;;
66020;SDS011;52789;59.980;30.346;2022-11-11T04:00:14;8.37;;;7.37;;
66020;SDS011;52789;59.980;30.346;2022-11-11T04:02:42;12.97;;;7.27;;
66020;SDS011;52789;59.980;30.346;2022-11-11T04:05:26;10.80;;;7.63;;
66020;SDS011;52789;59.980;30.346;2022-11-11T04:08:12;11.63;;;7.67;;
66020;SDS011;52789;59.980;30.346;2022-11-11T04:10:58;12.37;;;8.17;;
66020;SDS011;52789;59.980;30.346;2022-11-11T04:13:26;18.73;;;8.43;;
66020;SDS011;52789;59.980;30.346;2022-11-11T04:16:11;12.13;;;8.10;;
66020;SDS011;52789;59.980;30.346;2022-11-11T04:18:36;15.23;;;7.70;;
66020;SDS011;52789;59.980;30.346;2022-11-11T04:21:34;15.45;;;8.65;;
66020;SDS011;52789;59.980;30.346;2022-11-11T04:24:16;13.40;;;8.07;;
66020;SDS011;52789;59.980;30.346;2022-11-11T04:27:04;10.00;;;7.10;;
66020;SDS011;52789;59.980;30.346;2022-11-11T04:32:00;12.00;;;7.97;;
66020;SDS011;52789;59.980;30.346;2022-11-11T04:34:47;11.60;;;8.50;;
66020;SDS011;52789;59.980;30.346;2022-11-11T04:37:18;17.67;;;8.47;;
66020;SDS011;52789;59.980;30.346;2022-11-11T04:39:44;13.10;;;9.00;;
66020;SDS011;52789;59.980;30.346;2022-11-11T04:42:29;15.70;;;8.53;;
66020;SDS011;52789;59.980;30.346;2022-11-11T04:44:56;12.53;;;7.70;;
66020;SDS011;52789;59.980;30.346;2022-11-11T04:47:54;18.13;;;9.37;;
66020;SDS011;52789;59.980;30.346;2022-11-11T04:50:41;11.40;;;8.00;;
66020;SDS011;52789;59.980;30.346;2022-11-11T04:53:11;12.20;;;8.00;;
66020;SDS011;52789;59.980;30.346;2022-11-11T04:58:59;10.33;;;7.63;;
66020;SDS011;52789;59.980;30.346;2022-11-11T05:01:40;12.20;;;8.13;;
66020;SDS011;52789;59.980;30.346;2022-11-11T05:04:24;11.57;;;8.63;;
66020;SDS011;52789;59.980;30.346;2022-11-11T05:06:50;10.60;;;7.37;;
66020;SDS011;52789;59.980;30.346;2022-11-11T05:09:34;10.67;;;7.80;;
66020;SDS011;52789;59.980;30.346;2022-11-11T05:12:00;9.30;;;7.80;;
66020;SDS011;52789;59.980;30.346;2022-11-11T05:14:25;13.70;;;7.53;;
66020;SDS011;52789;59.980;30.346;2022-11-11T05:17:09;12.17;;;8.13;;
66020;SDS011;52789;59.980;30.346;2022-11-11T05:19:53;11.80;;;7.70;;
66020;SDS011;52789;59.980;30.346;2022-11-11T05:22:38;12.73;;;7.83;;
66020;SDS011;52789;59.980;30.346;2022-11-11T05:25:05;13.03;;;7.70;;
66020;SDS011;52789;59.980;30.346;2022-11-11T05:27:49;13.67;;;7.60;;
66020;SDS011;52789;59.980;30.346;2022-11-11T05:30:15;10.80;;;7.10;;
66020;SDS011;52789;59.980;30.346;2022-11-11T05:32:41;8.47;;;5.60;;
66020;SDS011;52789;59.980;30.346;2022-11-11T05:35:07;13.97;;;6.47;;
66020;SDS011;52789;59.980;30.346;2022-11-11T05:37:34;8.57;;;5.20;;
66020;SDS011;52789;59.980;30.346;2022-11-11T05:40:00;10.17;;;5.10;;
66020;SDS011;52789;59.980;30.346;2022-11-11T05:42:26;10.17;;;4.77;;
66020;SDS011;52789;59.980;30.346;2022-11-11T05:44:51;5.80;;;3.83;;
66020;SDS011;52789;59.980;30.346;2022-11-11T05:47:17;11.10;;;4.83;;
66020;SDS011;52789;59.980;30.346;2022-11-11T05:49:43;5.00;;;3.70;;
66020;SDS011;52789;59.980;30.346;2022-11-11T05:52:09;8.47;;;3.63;;
66020;SDS011;52789;59.980;30.346;2022-11-11T05:54:36;8.60;;;3.90;;
66020;SDS011;52789;59.980;30.346;2022-11-11T05:57:03;5.87;;;3.90;;
66020;SDS011;52789;59.980;30.346;2022-11-11T05:59:29;8.70;;;5.00;;
66020;SDS011;52789;59.980;30.346;2022-11-11T06:01:54;7.93;;;3.77;;
66020;SDS011;52789;59.980;30.346;2022-11-11T06:04:20;5.97;;;3.80;;
66020;SDS011;52789;59.980;30.346;2022-11-11T06:06:45;11.03;;;3.73;;
66020;SDS011;52789;59.980;30.346;2022-11-11T06:09:11;9.23;;;5.00;;
66020;SDS011;52789;59.980;30.346;2022-11-11T06:11:37;9.23;;;3.30;;
66020;SDS011;52789;59.980;30.346;2022-11-11T06:14:02;6.70;;;3.57;;
66020;SDS011;52789;59.980;30.346;2022-11-11T06:16:28;9.60;;;3.43;;
66020;SDS011;52789;59.980;30.346;2022-11-11T06:18:54;6.43;;;3.90;;
66020;SDS011;52789;59.980;30.346;2022-11-11T06:21:19;6.73;;;4.47;;
66020;SDS011;52789;59.980;30.346;2022-11-11T06:23:45;9.00;;;4.27;;
66020;SDS011;52789;59.980;30.346;2022-11-11T06:26:11;11.00;;;3.80;;
66020;SDS011;52789;59.980;30.346;2022-11-11T06:28:37;11.13;;;3.80;;
66020;SDS011;52789;59.980;30.346;2022-11-11T06:31:24;9.00;;;4.40;;
66020;SDS011;52789;59.980;30.346;2022-11-11T06:33:51;7.60;;;3.57;;
66020;SDS011;52789;59.980;30.346;2022-11-11T06:36:19;6.03;;;3.63;;
66020;SDS011;52789;59.980;30.346;2022-11-11T06:38:45;7.53;;;3.63;;
66020;SDS011;52789;59.980;30.346;2022-11-11T06:41:11;6.27;;;3.60;;
66020;SDS011;52789;59.980;30.346;2022-11-11T06:43:41;7.73;;;3.87;;
66020;SDS011;52789;59.980;30.346;2022-11-11T06:46:12;4.93;;;3.43;;
66020;SDS011;52789;59.980;30.346;2022-11-11T06:48:44;6.70;;;3.87;;
66020;SDS011;52789;59.980;30.346;2022-11-11T06:51:10;6.60;;;4.10;;
66020;SDS011;52789;59.980;30.346;2022-11-11T06:54:04;8.03;;;2.70;;
66020;SDS011;52789;59.980;30.346;2022-11-11T06:56:29;13.40;;;4.73;;
66020;SDS011;52789;59.980;30.346;2022-11-11T06:58:55;5.73;;;2.83;;
66020;SDS011;52789;59.980;30.346;2022-11-11T07:01:20;6.73;;;3.00;;
66020;SDS011;52789;59.980;30.346;2022-11-11T07:03:46;13.67;;;4.47;;
66020;SDS011;52789;59.980;30.346;2022-11-11T07:06:11;9.90;;;3.20;;
66020;SDS011;52789;59.980;30.346;2022-11-11T07:08:37;11.47;;;3.30;;
66020;SDS011;52789;59.980;30.346;2022-11-11T07:11:02;6.10;;;2.53;;
66020;SDS011;52789;59.980;30.346;2022-11-11T07:13:28;6.93;;;2.80;;
66020;SDS011;52789;59.980;30.346;2022-11-11T07:15:53;10.37;;;3.03;;
66020;SDS011;52789;59.980;30.346;2022-11-11T07:18:19;9.00;;;4.07;;
66020;SDS011;52789;59.980;30.346;2022-11-11T07:20:45;13.20;;;5.23;;
66020;SDS011;52789;59.980;30.346;2022-11-11T07:23:10;3.77;;;3.03;;
66020;SDS011;52789;59.980;30.346;2022-11-11T07:25:36;8.70;;;3.13;;
66020;SDS011;52789;59.980;30.346;2022-11-11T07:28:01;6.27;;;3.10;;
66020;SDS011;52789;59.980;30.346;2022-11-11T07:30:27;11.43;;;5.07;;
66020;SDS011;52789;59.980;30.346;2022-11-11T07:32:53;8.47;;;2.77;;
66020;SDS011;52789;59.980;30.346;2022-11-11T07:35:37;6.77;;;2.90;;
66020;SDS011;52789;59.980;30.346;2022-11-11T07:38:05;7.83;;;3.37;;
66020;SDS011;52789;59.980;30.346;2022-11-11T07:40:31;7.22;;;2.60;;
66020;SDS011;52789;59.980;30.346;2022-11-11T07:42:56;6.67;;;2.70;;
66020;SDS011;52789;59.980;30.346;2022-11-11T07:45:22;10.80;;;3.83;;
66020;SDS011;52789;59.980;30.346;2022-11-11T07:47:47;7.40;;;2.60;;
66020;SDS011;52789;59.980;30.346;2022-11-11T07:50:13;7.33;;;2.83;;
66020;SDS011;52789;59.980;30.346;2022-11-11T07:52:39;12.20;;;3.40;;
66020;SDS011;52789;59.980;30.346;2022-11-11T07:55:05;11.33;;;2.90;;
66020;SDS011;52789;59.980;30.346;2022-11-11T07:57:32;14.30;;;3.73;;
66020;SDS011;52789;59.980;30.346;2022-11-11T07:59:58;10.13;;;3.07;;
66020;SDS011;52789;59.980;30.346;2022-11-11T08:02:23;10.60;;;3.40;;
66020;SDS011;52789;59.980;30.346;2022-11-11T08:04:49;10.43;;;3.37;;
66020;SDS011;52789;59.980;30.346;2022-11-11T08:07:14;14.00;;;3.37;;
66020;SDS011;52789;59.980;30.346;2022-11-11T08:09:40;8.10;;;3.50;;
66020;SDS011;52789;59.980;30.346;2022-11-11T08:12:07;11.27;;;3.03;;
66020;SDS011;52789;59.980;30.346;2022-11-11T08:14:52;13.70;;;4.20;;
66020;SDS011;52789;59.980;30.346;2022-11-11T08:17:23;8.23;;;3.30;;
66020;SDS011;52789;59.980;30.346;2022-11-11T08:19:49;8.77;;;3.37;;
66020;SDS011;52789;59.980;30.346;2022-11-11T08:22:14;13.07;;;3.83;;
66020;SDS011;52789;59.980;30.346;2022-11-11T08:24:40;8.07;;;3.90;;
66020;SDS011;52789;59.980;30.346;2022-11-11T08:27:05;9.47;;;3.40;;
66020;SDS011;52789;59.980;30.346;2022-11-11T08:29:31;16.27;;;4.33;;
66020;SDS011;52789;59.980;30.346;2022-11-11T08:31:56;10.07;;;3.33;;
66020;SDS011;52789;59.980;30.346;2022-11-11T08:34:22;8.53;;;4.37;;
66020;SDS011;52789;59.980;30.346;2022-11-11T08:36:47;9.47;;;3.37;;
66020;SDS011;52789;59.980;30.346;2022-11-11T08:43:13;8.10;;;3.13;;
66020;SDS011;52789;59.980;30.346;2022-11-11T08:45:39;8.93;;;2.80;;
66020;SDS011;52789;59.980;30.346;2022-11-11T08:48:07;11.30;;;3.50;;
66020;SDS011;52789;59.980;30.346;2022-11-11T08:50:37;14.25;;;3.33;;
66020;SDS011;52789;59.980;30.346;2022-11-11T08:53:05;9.77;;;3.10;;
66020;SDS011;52789;59.980;30.346;2022-11-11T08:59:13;7.03;;;2.53;;
66020;SDS011;52789;59.980;30.346;2022-11-11T09:01:38;8.13;;;3.53;;
66020;SDS011;52789;59.980;30.346;2022-11-11T09:04:05;7.93;;;3.40;;
66020;SDS011;52789;59.980;30.346;2022-11-11T09:06:30;10.07;;;4.10;;
66020;SDS011;52789;59.980;30.346;2022-11-11T09:08:56;16.57;;;3.53;;
66020;SDS011;52789;59.980;30.346;2022-11-11T09:11:21;11.03;;;3.47;;
66020;SDS011;52789;59.980;30.346;2022-11-11T09:13:47;13.87;;;4.30;;
66020;SDS011;52789;59.980;30.346;2022-11-11T09:16:12;16.40;;;3.73;;
66020;SDS011;52789;59.980;30.346;2022-11-11T09:18:38;6.63;;;3.50;;
66020;SDS011;52789;59.980;30.346;2022-11-11T09:21:04;10.47;;;3.97;;
66020;SDS011;52789;59.980;30.346;2022-11-11T09:23:42;11.53;;;3.77;;
66020;SDS011;52789;59.980;30.346;2022-11-11T09:26:17;11.53;;;3.10;;
66020;SDS011;52789;59.980;30.346;2022-11-11T09:28:45;8.87;;;3.13;;
66020;SDS011;52789;59.980;30.346;2022-11-11T09:31:11;9.43;;;3.00;;
66020;SDS011;52789;59.980;30.346;2022-11-11T09:33:36;6.17;;;3.13;;
66020;SDS011;52789;59.980;30.346;2022-11-11T09:36:02;7.03;;;3.10;;
66020;SDS011;52789;59.980;30.346;2022-11-11T09:38:27;5.17;;;3.20;;
66020;SDS011;52789;59.980;30.346;2022-11-11T09:40:59;4.43;;;3.10;;
66020;SDS011;52789;59.980;30.346;2022-11-11T09:57:51;4.77;;;3.70;;
66020;SDS011;52789;59.980;30.346;2022-11-11T10:00:27;5.60;;;3.00;;
66020;SDS011;52789;59.980;30.346;2022-11-11T10:02:59;6.33;;;2.90;;
66020;SDS011;52789;59.980;30.346;2022-11-11T10:05:51;7.97;;;3.03;;
66020;SDS011;52789;59.980;30.346;2022-11-11T10:11:53;5.43;;;3.07;;
66020;SDS011;52789;59.980;30.346;2022-11-11T10:14:28;8.60;;;3.07;;
66020;SDS011;52789;59.980;30.346;2022-11-11T10:17:06;6.63;;;3.80;;
66020;SDS011;52789;59.980;30.346;2022-11-11T10:20:00;11.77;;;3.63;;
66020;SDS011;52789;59.980;30.346;2022-11-11T10:22:34;7.17;;;2.60;;
66020;SDS011;52789;59.980;30.346;2022-11-11T10:25:23;4.85;;;2.78;;
66020;SDS011;52789;59.980;30.346;2022-11-11T10:32:52;8.53;;;3.10;;
66020;SDS011;52789;59.980;30.346;2022-11-11T10:35:38;7.73;;;2.87;;
66020;SDS011;52789;59.980;30.346;2022-11-11T10:40:39;4.35;;;3.20;;
66020;SDS011;52789;59.980;30.346;2022-11-11T10:43:23;3.87;;;2.50;;
66020;SDS011;52789;59.980;30.346;2022-11-11T10:46:24;6.80;;;2.97;;
66020;SDS011;52789;59.980;30.346;2022-11-11T10:49:08;4.80;;;2.83;;
66020;SDS011;52789;59.980;30.346;2022-11-11T10:51:44;3.80;;;2.47;;
66020;SDS011;52789;59.980;30.346;2022-11-11T10:54:18;10.27;;;5.87;;
66020;SDS011;52789;59.980;30.346;2022-11-11T11:02:27;4.43;;;2.90;;
66020;SDS011;52789;59.980;30.346;2022-11-11T11:05:14;6.63;;;3.00;;
66020;SDS011;52789;59.980;30.346;2022-11-11T11:11:46;4.07;;;2.87;;
66020;SDS011;52789;59.980;30.346;2022-11-11T11:14:20;5.40;;;2.87;;
66020;SDS011;52789;59.980;30.346;2022-11-11T11:16:52;4.77;;;3.10;;
66020;SDS011;52789;59.980;30.346;2022-11-11T11:19:23;3.90;;;2.58;;
66020;SDS011;52789;59.980;30.346;2022-11-11T11:21:52;4.37;;;2.50;;
66020;SDS011;52789;59.980;30.346;2022-11-11T11:24:32;5.40;;;3.33;;
66020;SDS011;52789;59.980;30.346;2022-11-11T11:27:05;3.67;;;2.30;;
66020;SDS011;52789;59.980;30.346;2022-11-11T11:29:39;4.97;;;2.97;;
66020;SDS011;52789;59.980;30.346;2022-11-11T11:32:16;4.80;;;2.80;;
66020;SDS011;52789;59.980;30.346;2022-11-11T11:34:52;5.10;;;2.83;;
66020;SDS011;52789;59.980;30.346;2022-11-11T11:37:22;3.57;;;2.43;;
66020;SDS011;52789;59.980;30.346;2022-11-11T11:39:57;4.00;;;2.50;;
66020;SDS011;52789;59.980;30.346;2022-11-11T11:42:33;3.63;;;2.30;;
66020;SDS011;52789;59.980;30.346;2022-11-11T11:45:20;5.37;;;3.03;;
66020;SDS011;52789;59.980;30.346;2022-11-11T12:01:33;4.53;;;2.90;;
66020;SDS011;52789;59.980;30.346;2022-11-11T12:09:20;6.63;;;3.17;;
66020;SDS011;52789;59.980;30.346;2022-11-11T12:20:25;4.67;;;2.80;;
66020;SDS011;52789;59.980;30.346;2022-11-11T12:23:02;6.37;;;3.10;;
66020;SDS011;52789;59.980;30.346;2022-11-11T12:25:52;6.07;;;3.60;;
66020;SDS011;52789;59.980;30.346;2022-11-11T12:38:20;3.80;;;3.23;;
66020;SDS011;52789;59.980;30.346;2022-11-11T12:40:40;6.40;;;3.63;;
66020;SDS011;52789;59.980;30.346;2022-11-11T12:43:28;8.73;;;2.80;;
66020;SDS011;52789;59.980;30.346;2022-11-11T13:06:11;3.27;;;2.17;;
66020;SDS011;52789;59.980;30.346;2022-11-11T13:09:21;2.40;;;2.20;;
66020;SDS011;52789;59.980;30.346;2022-11-11T13:11:25;2.72;;;2.05;;
66020;SDS011;52789;59.980;30.346;2022-11-11T13:14:20;2.95;;;2.25;;
66020;SDS011;52789;59.980;30.346;2022-11-11T13:22:22;3.80;;;2.70;;
66020;SDS011;52789;59.980;30.346;2022-11-11T13:24:50;4.77;;;2.17;;
66020;SDS011;52789;59.980;30.346;2022-11-11T13:32:58;2.23;;;1.97;;
66020;SDS011;52789;59.980;30.346;2022-11-11T13:38:31;2.27;;;1.70;;
66020;SDS011;52789;59.980;30.346;2022-11-11T13:40:57;4.25;;;1.80;;
66020;SDS011;52789;59.980;30.346;2022-11-11T13:43:27;3.60;;;1.97;;
66020;SDS011;52789;59.980;30.346;2022-11-11T13:45:55;4.60;;;1.83;;
66020;SDS011;52789;59.980;30.346;2022-11-11T13:51:11;1.63;;;1.37;;
66020;SDS011;52789;59.980;30.346;2022-11-11T13:53:46;2.08;;;1.80;;
66020;SDS011;52789;59.980;30.346;2022-11-11T13:56:26;1.83;;;1.60;;
66020;SDS011;52789;59.980;30.346;2022-11-11T13:58:52;2.00;;;1.73;;
66020;SDS011;52789;59.980;30.346;2022-11-11T14:01:20;1.52;;;1.42;;
66020;SDS011;52789;59.980;30.346;2022-11-11T14:13:56;2.25;;;1.42;;
66020;SDS011;52789;59.980;30.346;2022-11-11T14:22:01;1.60;;;1.50;;
66020;SDS011;52789;59.980;30.346;2022-11-11T14:24:47;2.17;;;1.80;;
66020;SDS011;52789;59.980;30.346;2022-11-11T14:27:16;4.63;;;1.80;;
66020;SDS011;52789;59.980;30.346;2022-11-11T14:29:50;2.90;;;1.70;;
66020;SDS011;52789;59.980;30.346;2022-11-11T14:40:39;2.07;;;1.60;;
66020;SDS011;52789;59.980;30.346;2022-11-11T14:43:49;3.00;;;1.70;;
66020;SDS011;52789;59.980;30.346;2022-11-11T14:46:07;1.97;;;1.43;;
66020;SDS011;52789;59.980;30.346;2022-11-11T14:54:03;4.57;;;2.10;;
66020;SDS011;52789;59.980;30.346;2022-11-11T14:56:31;4.70;;;2.47;;
66020;SDS011;52789;59.980;30.346;2022-11-11T14:58:58;3.40;;;2.90;;
66020;SDS011;52789;59.980;30.346;2022-11-11T15:01:30;4.50;;;2.00;;
66020;SDS011;52789;59.980;30.346;2022-11-11T15:04:00;3.83;;;2.13;;
66020;SDS011;52789;59.980;30.346;2022-11-11T15:12:07;5.37;;;2.13;;
66020;SDS011;52789;59.980;30.346;2022-11-11T15:25:59;12.27;;;7.97;;
66020;SDS011;52789;59.980;30.346;2022-11-11T15:37:11;2.17;;;1.93;;
66020;SDS011;52789;59.980;30.346;2022-11-11T15:42:33;3.07;;;2.77;;
66020;SDS011;52789;59.980;30.346;2022-11-11T15:45:03;4.40;;;2.43;;
66020;SDS011;52789;59.980;30.346;2022-11-11T15:47:44;7.47;;;2.93;;
66020;SDS011;52789;59.980;30.346;2022-11-11T15:50:15;2.70;;;2.33;;
66020;SDS011;52789;59.980;30.346;2022-11-11T15:52:55;4.85;;;2.40;;
66020;SDS011;52789;59.980;30.346;2022-11-11T15:57:54;2.87;;;2.43;;
66020;SDS011;52789;59.980;30.346;2022-11-11T16:00:33;3.90;;;2.40;;
66020;SDS011;52789;59.980;30.346;2022-11-11T16:02:59;3.27;;;2.60;;
66020;SDS011;52789;59.980;30.346;2022-11-11T16:05:25;5.17;;;2.57;;
66020;SDS011;52789;59.980;30.346;2022-11-11T16:07:54;3.03;;;2.73;;
66020;SDS011;52789;59.980;30.346;2022-11-11T16:10:56;3.17;;;2.80;;
66020;SDS011;52789;59.980;30.346;2022-11-11T16:13:20;3.67;;;3.15;;
66020;SDS011;52789;59.980;30.346;2022-11-11T16:18:28;4.23;;;3.07;;
66020;SDS011;52789;59.980;30.346;2022-11-11T16:23:40;4.27;;;3.33;;
66020;SDS011;52789;59.980;30.346;2022-11-11T16:26:06;4.97;;;3.30;;
66020;SDS011;52789;59.980;30.346;2022-11-11T16:31:20;4.77;;;3.40;;
66020;SDS011;52789;59.980;30.346;2022-11-11T16:33:56;4.67;;;4.27;;
66020;SDS011;52789;59.980;30.346;2022-11-11T16:36:25;4.17;;;3.60;;
66020;SDS011;52789;59.980;30.346;2022-11-11T16:38:51;3.27;;;2.97;;
66020;SDS011;52789;59.980;30.346;2022-11-11T16:41:26;5.47;;;3.70;;
66020;SDS011;52789;59.980;30.346;2022-11-11T16:43:55;6.10;;;3.53;;
66020;SDS011;52789;59.980;30.346;2022-11-11T16:49:00;3.17;;;2.92;;
66020;SDS011;52789;59.980;30.346;2022-11-11T16:51:53;2.73;;;2.53;;
66020;SDS011;52789;59.980;30.346;2022-11-11T16:54:23;1.90;;;1.80;;
66020;SDS011;52789;59.980;30.346;2022-11-11T16:56:53;3.33;;;2.40;;
66020;SDS011;52789;59.980;30.346;2022-11-11T16:59:36;2.10;;;1.80;;
66020;SDS011;52789;59.980;30.346;2022-11-11T17:02:15;2.50;;;2.30;;
66020;SDS011;52789;59.980;30.346;2022-11-11T17:04:53;2.77;;;2.23;;
66020;SDS011;52789;59.980;30.346;2022-11-11T17:07:30;4.00;;;2.07;;
66020;SDS011;52789;59.980;30.346;2022-11-11T17:12:32;2.67;;;1.87;;
66020;SDS011;52789;59.980;30.346;2022-11-11T17:15:02;2.03;;;1.80;;
66020;SDS011;52789;59.980;30.346;2022-11-11T17:17:30;4.18;;;2.65;;
66020;SDS011;52789;59.980;30.346;2022-11-11T17:19:56;3.57;;;2.87;;
66020;SDS011;52789;59.980;30.346;2022-11-11T17:22:24;9.85;;;4.75;;
66020;SDS011;52789;59.980;30.346;2022-11-11T17:24:50;4.53;;;2.43;;
66020;SDS011;52789;59.980;30.346;2022-11-11T17:27:15;8.63;;;3.47;;
66020;SDS011;52789;59.980;30.346;2022-11-11T17:29:41;4.37;;;3.23;;
66020;SDS011;52789;59.980;30.346;2022-11-11T17:32:06;5.13;;;2.77;;
66020;SDS011;52789;59.980;30.346;2022-11-11T17:34:32;5.03;;;3.33;;
66020;SDS011;52789;59.980;30.346;2022-11-11T17:36:58;4.87;;;2.63;;
66020;SDS011;52789;59.980;30.346;2022-11-11T17:39:23;5.00;;;3.23;;
66020;SDS011;52789;59.980;30.346;2022-11-11T17:41:49;7.70;;;3.33;;
66020;SDS011;52789;59.980;30.346;2022-11-11T17:44:14;4.67;;;3.43;;
66020;SDS011;52789;59.980;30.346;2022-11-11T17:46:40;8.87;;;3.30;;
66020;SDS011;52789;59.980;30.346;2022-11-11T17:49:06;5.50;;;3.00;;
66020;SDS011;52789;59.980;30.346;2022-11-11T17:51:32;7.77;;;3.97;;
66020;SDS011;52789;59.980;30.346;2022-11-11T17:54:00;12.20;;;3.93;;
66020;SDS011;52789;59.980;30.346;2022-11-11T17:56:26;5.67;;;4.50;;
66020;SDS011;52789;59.980;30.346;2022-11-11T17:58:52;8.90;;;4.00;;
66020;SDS011;52789;59.980;30.346;2022-11-11T18:01:19;10.53;;;4.13;;
66020;SDS011;52789;59.980;30.346;2022-11-11T18:03:45;10.17;;;4.90;;
66020;SDS011;52789;59.980;30.346;2022-11-11T18:06:10;13.97;;;5.37;;
66020;SDS011;52789;59.980;30.346;2022-11-11T18:08:41;10.93;;;5.50;;
66020;SDS011;52789;59.980;30.346;2022-11-11T18:11:07;7.73;;;4.60;;
66020;SDS011;52789;59.980;30.346;2022-11-11T18:13:33;12.10;;;4.50;;
66020;SDS011;52789;59.980;30.346;2022-11-11T18:15:59;16.13;;;5.90;;
66020;SDS011;52789;59.980;30.346;2022-11-11T18:18:25;15.70;;;5.23;;
66020;SDS011;52789;59.980;30.346;2022-11-11T18:21:04;13.07;;;6.10;;
66020;SDS011;52789;59.980;30.346;2022-11-11T18:23:35;11.50;;;4.97;;
66020;SDS011;52789;59.980;30.346;2022-11-11T18:26:02;18.93;;;6.67;;